Time;durP1;ratioP1;P1;durP2;ratioP2;P2;SDS_P1;SDS_P2;PMS_P1;PMS_P2;Temp;Humidity;BMP_temperature;BMP_pressure;BME280_temperature;BME280_humidity;BME280_pressure;Samples;Min_cycle;Max_cycle;Signal;HPM_P1;HPM_P2
2022/03/17 00:02:19;;;;;;;42.53;20.75;;;;;;;1.46;91.94;101425.72;4439617;32;20439;-75
2022/03/17 00:04:48;;;;;;;35.58;19.60;;;;;;;1.36;91.82;101425.34;4439525;32;20570;-75
2022/03/17 00:07:15;;;;;;;39.53;19.98;;;;;;;1.40;91.65;101426.34;4425355;32;20486;-75
2022/03/17 00:09:42;;;;;;;37.40;21.10;;;;;;;1.34;91.91;101429.59;4439528;32;20370;-75
2022/03/17 00:12:09;;;;;;;43.58;23.65;;;;;;;1.27;92.05;101424.94;4425189;32;20105;-76
2022/03/17 00:14:37;;;;;;;58.17;30.92;;;;;;;1.22;92.21;101434.25;4439247;32;20101;-75
2022/03/17 00:17:04;;;;;;;74.25;35.42;;;;;;;1.18;92.11;101434.94;4439419;32;20147;-76
2022/03/17 00:19:32;;;;;;;55.95;28.10;;;;;;;1.20;92.64;101441.06;4439413;32;20089;-75
2022/03/17 00:21:59;;;;;;;52.22;25.83;;;;;;;1.21;92.82;101437.69;4425039;32;20089;-75
2022/03/17 00:24:26;;;;;;;45.50;23.48;;;;;;;1.14;92.99;101443.44;4412233;32;20162;-75
2022/03/17 00:26:54;;;;;;;41.65;21.02;;;;;;;1.17;92.92;101438.38;4439433;32;20110;-75
2022/03/17 00:29:22;;;;;;;41.47;20.83;;;;;;;1.15;92.79;101438.28;4439450;32;20433;-75
2022/03/17 00:31:49;;;;;;;42.78;21.92;;;;;;;1.22;92.89;101433.37;4424916;32;20101;-75
2022/03/17 00:34:16;;;;;;;55.20;29.35;;;;;;;1.19;92.60;101432.41;4439436;32;20117;-76
2022/03/17 00:36:47;;;;;;;52.95;27.60;;;;;;;1.16;92.41;101437.44;4425133;32;20463;-75
2022/03/17 00:39:15;;;;;;;45.12;24.12;;;;;;;1.22;91.96;101435.97;4425486;32;20500;-75
2022/03/17 00:41:43;;;;;;;49.78;27.25;;;;;;;1.16;91.80;101436.56;4425342;32;20453;-75
2022/03/17 00:44:11;;;;;;;46.28;24.23;;;;;;;1.16;91.45;101428.78;4439257;32;20097;-76
2022/03/17 00:46:39;;;;;;;30.73;16.77;;;;;;;0.98;92.11;101428.00;4439255;32;20144;-75
2022/03/17 00:49:07;;;;;;;31.15;16.70;;;;;;;0.81;93.20;101427.25;4439396;32;20414;-76
2022/03/17 00:51:35;;;;;;;32.90;17.12;;;;;;;0.76;93.78;101429.66;4439231;32;20153;-75
2022/03/17 00:54:02;;;;;;;27.23;15.38;;;;;;;0.93;93.16;101420.91;4439381;32;20128;-75
2022/03/17 00:56:30;;;;;;;32.17;17.45;;;;;;;1.04;92.16;101428.28;4439357;32;20120;-75
2022/03/17 00:58:57;;;;;;;26.85;16.35;;;;;;;1.01;91.81;101434.22;4439309;32;20157;-75
2022/03/17 01:01:24;;;;;;;28.27;17.33;;;;;;;0.89;92.39;101431.09;4412282;32;20091;-75
2022/03/17 01:03:52;;;;;;;30.45;17.75;;;;;;;0.91;91.88;101443.28;4439198;32;20093;-75
2022/03/17 01:06:19;;;;;;;25.85;16.37;;;;;;;0.69;93.26;101433.66;4439138;32;20765;-76
2022/03/17 01:08:46;;;;;;;32.00;17.60;;;;;;;0.75;93.10;101442.56;4424970;32;20115;-76
2022/03/17 01:11:14;;;;;;;26.33;15.90;;;;;;;0.72;93.01;101448.50;4439275;32;20475;-76
2022/03/17 01:13:42;;;;;;;30.98;15.30;;;;;;;0.69;92.93;101438.84;4439016;32;20172;-76
2022/03/17 01:16:09;;;;;;;29.27;15.20;;;;;;;0.64;93.24;101442.97;4439111;32;20581;-76
2022/03/17 01:18:37;;;;;;;26.00;14.95;;;;;;;0.65;93.25;101441.25;4424700;32;20093;-76
2022/03/17 01:21:04;;;;;;;27.15;16.02;;;;;;;0.70;93.06;101444.94;4439400;32;20093;-76
2022/03/17 01:23:34;;;;;;;27.27;16.00;;;;;;;0.66;93.04;101450.81;4424410;32;20113;-76
2022/03/17 01:26:01;;;;;;;24.05;15.57;;;;;;;0.70;93.09;101452.72;4438994;32;20164;-76
2022/03/17 01:28:28;;;;;;;30.37;15.98;;;;;;;0.66;93.23;101445.62;4438552;32;20085;-76
2022/03/17 01:30:56;;;;;;;24.80;15.27;;;;;;;0.68;93.30;101444.00;4424546;32;20180;-76
2022/03/17 01:33:23;;;;;;;28.85;16.50;;;;;;;0.53;94.33;101438.09;4438930;32;20105;-76
2022/03/17 01:35:50;;;;;;;31.65;18.60;;;;;;;0.50;94.67;101435.38;4424607;32;20139;-76
2022/03/17 01:38:17;;;;;;;32.88;18.65;;;;;;;0.65;94.08;101438.66;4438849;32;20270;-76
2022/03/17 01:40:45;;;;;;;31.05;18.77;;;;;;;0.69;93.40;101443.16;4438924;32;20434;-76
2022/03/17 01:43:12;;;;;;;33.78;18.12;;;;;;;0.66;92.99;101440.44;4438921;32;20181;-76
2022/03/17 01:45:39;;;;;;;30.80;17.73;;;;;;;0.60;92.75;101442.72;4438925;32;20127;-76
2022/03/17 01:48:06;;;;;;;32.80;17.17;;;;;;;0.46;93.14;101439.53;4438857;32;20410;-76
2022/03/17 01:50:34;;;;;;;31.23;18.20;;;;;;;0.41;93.04;101443.63;4438890;32;20397;-76
2022/03/17 01:53:01;;;;;;;33.08;18.87;;;;;;;0.36;93.30;101438.22;4424567;32;20093;-75
2022/03/17 01:55:30;;;;;;;34.45;18.40;;;;;;;0.22;94.41;101442.75;4438815;32;20106;-75
2022/03/17 01:57:59;;;;;;;34.85;18.87;;;;;;;0.28;94.34;101444.72;4438777;32;20809;-75
2022/03/17 02:00:27;;;;;;;36.50;19.83;;;;;;;0.24;94.27;101454.06;4411685;32;20475;-75
2022/03/17 02:02:54;;;;;;;32.72;17.87;;;;;;;0.30;93.62;101448.31;4424837;32;20477;-76
2022/03/17 02:05:23;;;;;;;32.20;18.90;;;;;;;0.36;93.11;101448.59;4438724;32;20556;-75
2022/03/17 02:07:53;;;;;;;33.92;18.67;;;;;;;0.25;93.68;101449.81;4411864;32;20085;-76
2022/03/17 02:10:22;;;;;;;32.83;19.12;;;;;;;0.17;94.04;101449.41;4424313;32;20455;-76
2022/03/17 02:15:36;;;;;;;33.17;19.20;;;;;;;0.20;93.68;101464.22;4438599;32;20167;-76
2022/03/17 02:18:08;;;;;;;29.25;18.15;;;;;;;0.20;93.62;101469.41;4438574;32;20136;-76
2022/03/17 02:20:36;;;;;;;39.15;19.37;;;;;;;0.22;93.30;101470.41;4438690;32;20188;-75
2022/03/17 02:25:53;;;;;;;35.40;18.15;;;;;;;0.10;93.67;101477.56;4438760;32;20105;-75
2022/03/17 02:28:22;;;;;;;34.67;19.15;;;;;;;0.08;93.66;101476.63;4424698;32;20419;-76
2022/03/17 02:30:49;;;;;;;31.60;18.33;;;;;;;0.10;93.05;101481.03;4424103;32;20436;-75
2022/03/17 02:33:16;;;;;;;36.10;17.87;;;;;;;0.17;92.40;101479.62;4438376;32;20113;-76
2022/03/17 02:35:46;;;;;;;32.25;18.87;;;;;;;0.12;93.39;101476.84;4424151;32;20142;-75
2022/03/17 02:38:13;;;;;;;33.22;18.65;;;;;;;0.01;94.11;101479.72;4424050;32;20080;-75
2022/03/17 02:40:48;;;;;;;33.25;18.40;;;;;;;-0.16;94.86;101489.28;4424218;32;20726;-75
2022/03/17 02:43:16;;;;;;;32.97;20.23;;;;;;;-0.23;95.60;101487.19;4438320;32;20465;-75
2022/03/17 02:45:45;;;;;;;32.35;18.58;;;;;;;-0.28;95.52;101487.84;4438362;32;20182;-75
2022/03/17 02:48:12;;;;;;;32.03;18.65;;;;;;;-0.33;96.41;101489.31;4438467;32;20428;-75
2022/03/17 02:50:40;;;;;;;30.05;17.62;;;;;;;-0.40;96.91;101489.81;4423763;32;20112;-75
2022/03/17 02:53:09;;;;;;;31.98;17.95;;;;;;;-0.27;96.39;101492.22;4438146;32;20101;-75
2022/03/17 02:55:39;;;;;;;34.08;18.23;;;;;;;-0.07;94.36;101492.28;4438121;32;20440;-75
2022/03/17 02:58:08;;;;;;;34.67;18.42;;;;;;;-0.17;94.88;101495.28;4438040;32;20085;-75
2022/03/17 03:00:37;;;;;;;31.55;19.17;;;;;;;-0.38;95.92;101495.09;4438080;32;20156;-75
2022/03/17 03:03:06;;;;;;;32.70;18.77;;;;;;;-0.37;96.09;101505.50;4438095;32;20500;-75
2022/03/17 03:05:35;;;;;;;30.33;17.67;;;;;;;-0.38;96.45;101501.16;4423934;32;20121;-75
2022/03/17 03:08:02;;;;;;;31.95;18.73;;;;;;;-0.33;96.21;101511.75;4438075;32;20097;-75
2022/03/17 03:10:31;;;;;;;33.35;17.75;;;;;;;-0.37;96.37;101512.41;4423614;32;20123;-75
2022/03/17 03:12:59;;;;;;;45.63;17.87;;;;;;;-0.10;95.34;101513.78;4437868;32;20136;-76
2022/03/17 03:15:26;;;;;;;31.45;18.52;;;;;;;0.08;94.08;101510.31;4437830;32;20527;-76
2022/03/17 03:17:55;;;;;;;35.78;19.37;;;;;;;-0.09;94.91;101515.53;4438050;32;20084;-75
2022/03/17 03:20:23;;;;;;;39.45;20.33;;;;;;;-0.18;95.52;101507.31;4437807;32;20602;-75
2022/03/17 03:22:50;;;;;;;33.13;17.70;;;;;;;-0.18;95.47;101504.72;4437548;32;20093;-75
2022/03/17 03:25:18;;;;;;;29.70;16.52;;;;;;;-0.07;95.27;101511.34;4437749;32;20538;-75
2022/03/17 03:27:45;;;;;;;32.88;17.02;;;;;;;0.06;94.35;101509.34;4423301;32;20153;-75
2022/03/17 03:30:14;;;;;;;33.20;17.98;;;;;;;0.16;93.20;101506.38;4437648;32;20716;-76
2022/03/17 03:32:44;;;;;;;31.70;18.12;;;;;;;0.13;93.04;101509.69;4437623;32;20173;-75
2022/03/17 03:37:59;;;;;;;36.25;19.40;;;;;;;0.11;92.16;101513.06;4423126;32;20427;-76
2022/03/17 03:40:26;;;;;;;33.83;19.52;;;;;;;-0.12;92.80;101520.56;4437650;32;20564;-75
2022/03/17 03:42:53;;;;;;;36.42;20.50;;;;;;;-0.25;93.51;101521.69;4437553;32;20097;-75
2022/03/17 03:45:21;;;;;;;34.65;18.75;;;;;;;-0.26;93.64;101526.78;4423272;32;20158;-75
2022/03/17 03:47:48;;;;;;;33.72;18.92;;;;;;;-0.25;94.03;101523.34;4437388;32;20086;-75
2022/03/17 03:50:15;;;;;;;35.33;18.20;;;;;;;-0.28;93.82;101523.22;4423732;32;20081;-75
2022/03/17 03:52:43;;;;;;;29.70;17.67;;;;;;;-0.35;94.18;101528.91;4439638;32;20097;-75
2022/03/17 03:55:11;;;;;;;33.33;18.30;;;;;;;-0.33;94.26;101533.34;4439710;32;20135;-75
2022/03/17 03:57:38;;;;;;;31.35;18.48;;;;;;;-0.36;94.35;101534.87;4439598;32;20118;-75
2022/03/17 04:02:55;;;;;;;37.17;18.33;;;;;;;-0.38;94.67;101531.34;4439576;32;20113;-76
2022/03/17 04:05:27;;;;;;;31.67;19.20;;;;;;;-0.43;95.09;101530.22;4439619;32;20101;-75
2022/03/17 04:07:56;;;;;;;28.70;17.30;;;;;;;-0.51;95.39;101525.53;4439587;32;20221;-75
2022/03/17 04:10:24;;;;;;;32.80;18.73;;;;;;;-0.49;95.22;101523.03;4439530;32;20088;-76
2022/03/17 04:12:52;;;;;;;30.52;17.73;;;;;;;-0.53;95.03;101515.91;4424939;32;20113;-75
2022/03/17 04:15:20;;;;;;;33.15;18.55;;;;;;;-0.28;94.19;101523.22;4425119;32;20196;-75
2022/03/17 04:17:49;;;;;;;31.30;18.42;;;;;;;-0.22;94.32;101517.44;4425021;32;20081;-76
2022/03/17 04:20:16;;;;;;;34.08;19.08;;;;;;;-0.02;93.82;101512.44;4419187;32;201245;-75
2022/03/17 04:22:44;;;;;;;35.22;20.65;;;;;;;0.03;93.13;101511.78;4439320;32;20097;-75
2022/03/17 04:25:11;;;;;;;34.45;19.15;;;;;;;-0.02;93.45;101507.25;4425035;32;20460;-75
2022/03/17 04:27:38;;;;;;;31.77;18.60;;;;;;;0.05;93.49;101518.81;4425051;32;20130;-75
2022/03/17 04:30:07;;;;;;;39.63;19.45;;;;;;;0.07;93.33;101522.38;4439358;32;20145;-75
2022/03/17 04:32:34;;;;;;;37.10;19.37;;;;;;;0.12;92.58;101535.56;4439539;32;20104;-75
2022/03/17 04:35:01;;;;;;;34.78;19.40;;;;;;;0.13;92.24;101545.09;4425343;32;20109;-75
2022/03/17 04:37:28;;;;;;;38.35;18.83;;;;;;;0.11;91.70;101554.53;4424686;32;20134;-75
2022/03/17 04:39:56;;;;;;;33.58;18.83;;;;;;;-0.08;92.43;101550.09;4439179;32;20126;-75
2022/03/17 04:42:23;;;;;;;33.38;19.75;;;;;;;-0.08;92.26;101553.59;4412282;32;20127;-75
2022/03/17 04:44:50;;;;;;;35.30;19.65;;;;;;;-0.08;92.16;101563.06;4439396;32;20170;-75
2022/03/17 04:47:17;;;;;;;41.03;21.08;;;;;;;-0.12;92.17;101562.03;4439329;32;20115;-75
2022/03/17 04:49:44;;;;;;;36.78;20.45;;;;;;;-0.22;92.66;101553.72;4438336;32;20097;-75
2022/03/17 04:54:57;;;;;;;36.60;19.85;;;;;;;-0.21;92.79;101551.22;4415267;32;20122;-76
2022/03/17 04:57:27;;;;;;;41.20;20.50;;;;;;;-0.20;92.60;101547.81;4430769;32;20740;-76
2022/03/17 04:59:54;;;;;;;40.15;20.33;;;;;;;-0.06;92.10;101556.28;4424238;32;20477;-76
2022/03/17 05:02:21;;;;;;;38.88;19.25;;;;;;;0.15;91.34;101561.63;4423497;32;20808;-75
2022/03/17 05:04:51;;;;;;;35.45;19.60;;;;;;;0.36;90.36;101573.03;4424703;32;20093;-75
2022/03/17 05:07:18;;;;;;;38.28;19.23;;;;;;;0.64;89.07;101574.38;4424645;32;20085;-75
2022/03/17 05:09:45;;;;;;;45.05;21.00;;;;;;;0.85;87.92;101577.03;4410437;32;20115;-76
2022/03/17 05:12:14;;;;;;;36.65;18.75;;;;;;;1.05;86.51;101573.66;4424632;32;20440;-75
2022/03/17 05:14:41;;;;;;;39.88;18.73;;;;;;;1.32;85.37;101575.75;4424615;32;20188;-75
2022/03/17 05:17:08;;;;;;;40.28;18.85;;;;;;;1.58;83.60;101589.87;4410533;32;20914;-75
2022/03/17 05:19:36;;;;;;;42.55;19.92;;;;;;;1.75;83.06;101596.69;4424630;32;20101;-75
2022/03/17 05:22:03;;;;;;;40.15;20.00;;;;;;;1.72;82.13;101612.16;4426582;32;20093;-75
2022/03/17 05:24:32;;;;;;;42.22;21.85;;;;;;;1.66;82.01;101617.06;4416097;32;21132;-75
2022/03/17 05:26:59;;;;;;;54.67;25.17;;;;;;;1.80;81.86;101621.19;4424461;32;20109;-75
2022/03/17 05:29:27;;;;;;;47.85;23.50;;;;;;;1.68;82.38;101618.91;4428002;32;20127;-75
2022/03/17 05:31:55;;;;;;;43.47;24.25;;;;;;;1.59;82.53;101623.72;4431946;32;20120;-75
2022/03/17 05:34:22;;;;;;;44.25;21.50;;;;;;;1.59;83.53;101628.00;4432918;32;20128;-75
2022/03/17 05:36:49;;;;;;;41.22;21.85;;;;;;;1.65;83.20;101623.09;4410231;32;20713;-75
2022/03/17 05:39:17;;;;;;;47.88;21.83;;;;;;;1.61;83.60;101628.97;4435556;32;20150;-75
2022/03/17 05:41:45;;;;;;;43.75;21.77;;;;;;;1.60;83.80;101635.00;4430834;32;20100;-74
2022/03/17 05:44:12;;;;;;;40.30;21.77;;;;;;;1.62;83.84;101642.03;4438904;32;20143;-74
2022/03/17 05:46:39;;;;;;;38.53;20.33;;;;;;;1.66;84.00;101645.62;4435097;32;20151;-75
2022/03/17 05:49:06;;;;;;;37.75;20.00;;;;;;;1.85;82.86;101656.03;4431580;32;20089;-75
2022/03/17 05:51:34;;;;;;;41.60;22.13;;;;;;;1.98;82.20;101666.97;4429064;32;20129;-76
2022/03/17 05:54:01;;;;;;;34.75;19.20;;;;;;;2.10;81.94;101670.09;4412796;32;20120;-75
2022/03/17 05:56:29;;;;;;;43.30;18.75;;;;;;;2.14;81.97;101674.59;4432304;32;20097;-76
2022/03/17 05:58:59;;;;;;;40.17;20.65;;;;;;;2.30;81.19;101677.06;4409878;32;20085;-75
2022/03/17 06:01:28;;;;;;;36.08;19.17;;;;;;;2.42;80.94;101676.66;4433941;32;20097;-75
2022/03/17 06:03:57;;;;;;;40.10;19.92;;;;;;;2.57;79.13;101673.81;4437636;32;20176;-76
2022/03/17 06:06:27;;;;;;;50.30;20.70;;;;;;;2.71;78.39;101675.25;4438515;32;20097;-76
2022/03/17 06:08:54;;;;;;;32.65;18.80;;;;;;;2.87;78.82;101680.28;4437777;32;20104;-77
2022/03/17 06:11:21;;;;;;;55.78;19.58;;;;;;;2.97;79.55;101683.22;4437909;32;20156;-76
2022/03/17 06:13:49;;;;;;;44.70;21.33;;;;;;;3.03;79.15;101693.88;4438341;32;20713;-75
2022/03/17 06:16:16;;;;;;;42.25;22.77;;;;;;;3.12;78.69;101694.25;4438862;32;20116;-75
2022/03/17 06:18:44;;;;;;;39.15;21.33;;;;;;;3.23;78.30;101692.97;4438322;32;20726;-75
2022/03/17 06:21:11;;;;;;;39.75;22.00;;;;;;;3.37;77.54;101697.81;4437804;32;20491;-77
2022/03/17 06:23:38;;;;;;;41.13;22.25;;;;;;;3.51;77.08;101697.50;4433877;32;20113;-76
2022/03/17 06:26:06;;;;;;;41.17;21.77;;;;;;;3.68;76.76;101705.97;4421212;32;20171;-75
2022/03/17 06:28:33;;;;;;;48.58;21.90;;;;;;;3.87;76.22;101714.47;4439147;32;20096;-77
2022/03/17 06:31:01;;;;;;;45.40;22.42;;;;;;;3.98;75.58;101702.69;4435821;32;20723;-77
2022/03/17 06:33:31;;;;;;;43.55;23.17;;;;;;;4.11;74.08;101712.75;4427632;32;20441;-76
2022/03/17 06:35:59;;;;;;;41.95;20.52;;;;;;;4.29;73.17;101713.38;4423786;32;20081;-76
2022/03/17 06:38:27;;;;;;;59.97;21.55;;;;;;;4.45;71.58;101714.81;4423725;32;20456;-76
2022/03/17 06:40:55;;;;;;;57.92;21.05;;;;;;;4.60;69.50;101714.44;4423672;32;20113;-76
2022/03/17 06:43:22;;;;;;;41.50;19.17;;;;;;;4.79;67.95;101716.81;4428951;32;20167;-76
2022/03/17 06:45:50;;;;;;;37.58;18.85;;;;;;;4.99;66.41;101716.59;4434765;32;20119;-76
2022/03/17 06:48:17;;;;;;;43.33;19.77;;;;;;;5.14;65.86;101714.47;4417393;32;20807;-75
2022/03/17 06:50:44;;;;;;;36.40;18.62;;;;;;;5.28;64.89;101709.66;4423115;32;20525;-76
2022/03/17 06:53:11;;;;;;;44.15;18.90;;;;;;;5.41;64.01;101721.41;4422954;32;20536;-76
2022/03/17 06:55:39;;;;;;;40.20;18.90;;;;;;;5.56;63.86;101719.25;4423603;32;20114;-75
2022/03/17 06:58:06;;;;;;;42.58;17.65;;;;;;;5.72;61.42;101725.78;4423220;32;20645;-76
2022/03/17 07:00:33;;;;;;;51.75;18.27;;;;;;;5.81;60.22;101726.06;4409389;32;20768;-76
2022/03/17 07:03:01;;;;;;;37.25;17.65;;;;;;;5.86;60.33;101715.72;4423595;32;20089;-76
2022/03/17 07:05:28;;;;;;;41.03;18.75;;;;;;;5.96;60.29;101718.69;4423303;32;20143;-75
2022/03/17 07:07:55;;;;;;;40.90;19.27;;;;;;;6.09;60.30;101726.91;4409402;32;20093;-76
2022/03/17 07:10:22;;;;;;;42.05;18.58;;;;;;;6.23;59.99;101721.19;4423004;32;20171;-75
2022/03/17 07:12:49;;;;;;;35.00;17.27;;;;;;;6.35;58.94;101724.97;4422629;32;20131;-74
2022/03/17 07:15:16;;;;;;;37.13;19.05;;;;;;;6.33;59.00;101721.47;4422703;32;20112;-74
2022/03/17 07:17:44;;;;;;;38.35;18.60;;;;;;;6.37;59.37;101723.31;4409239;32;20140;-76
2022/03/17 07:20:18;;;;;;;35.85;18.17;;;;;;;6.40;59.93;101720.78;4422845;32;20175;-76
2022/03/17 07:22:47;;;;;;;44.65;19.42;;;;;;;6.49;59.71;101721.00;4422441;32;20093;-75
2022/03/17 07:25:17;;;;;;;35.42;18.77;;;;;;;6.53;59.41;101720.22;4423197;32;20090;-75
2022/03/17 07:27:46;;;;;;;41.05;18.15;;;;;;;6.58;59.30;101722.97;4424995;32;20408;-76
2022/03/17 07:30:19;;;;;;;34.45;18.55;;;;;;;6.68;59.71;101725.88;4425167;32;20124;-76
2022/03/17 07:32:55;;;;;;;37.22;19.00;;;;;;;6.69;59.39;101718.91;4427379;32;20557;-75
2022/03/17 07:35:23;;;;;;;36.15;17.33;;;;;;;6.69;59.80;101721.53;4440371;32;20104;-73
2022/03/17 07:37:50;;;;;;;44.08;18.20;;;;;;;6.74;59.89;101726.88;4440561;32;20089;-74
2022/03/17 07:40:17;;;;;;;34.90;18.87;;;;;;;6.84;59.90;101723.62;4440356;32;20101;-75
2022/03/17 07:42:45;;;;;;;45.05;20.40;;;;;;;6.95;59.01;101723.03;4440397;32;20093;-74
2022/03/17 07:45:13;;;;;;;42.03;19.70;;;;;;;6.94;58.99;101725.63;4432838;32;20160;-75
2022/03/17 07:47:46;;;;;;;44.25;20.40;;;;;;;7.03;59.14;101727.56;4425195;32;20109;-77
2022/03/17 07:50:15;;;;;;;35.88;18.23;;;;;;;7.15;58.19;101727.88;4424946;32;20481;-77
2022/03/17 07:52:42;;;;;;;38.78;19.25;;;;;;;7.30;58.22;101729.97;4424988;32;20123;-77
2022/03/17 07:55:10;;;;;;;40.35;18.58;;;;;;;7.38;58.12;101739.78;4425061;32;20089;-77
2022/03/17 07:57:39;;;;;;;41.50;19.02;;;;;;;7.55;58.06;101731.41;4424729;32;20149;-75
2022/03/17 08:00:11;;;;;;;32.50;17.50;;;;;;;7.71;57.57;101743.13;4424764;32;20101;-75
2022/03/17 08:02:41;;;;;;;37.38;18.92;;;;;;;7.89;58.66;101733.91;4424961;32;20101;-75
2022/03/17 08:05:10;;;;;;;40.90;19.45;;;;;;;8.04;60.52;101735.06;4433691;32;20146;-75
2022/03/17 08:07:38;;;;;;;43.33;19.05;;;;;;;8.33;60.17;101743.50;4426666;32;20135;-75
2022/03/17 08:10:06;;;;;;;35.65;18.10;;;;;;;8.49;56.70;101747.34;4424915;32;20756;-74
2022/03/17 08:12:34;;;;;;;40.10;19.77;;;;;;;8.60;57.01;101746.69;4424736;32;20144;-74
2022/03/17 08:15:05;;;;;;;44.20;20.50;;;;;;;8.74;57.88;101749.56;4426741;32;20717;-74
2022/03/17 08:17:33;;;;;;;39.53;19.37;;;;;;;8.81;54.97;101738.28;4440392;32;20076;-75
2022/03/17 08:20:02;;;;;;;37.45;19.30;;;;;;;8.84;54.61;101751.50;4439855;32;20145;-76
2022/03/17 08:22:29;;;;;;;38.92;17.87;;;;;;;9.09;57.16;101749.28;4429640;32;20112;-76
2022/03/17 08:24:56;;;;;;;40.75;19.55;;;;;;;9.34;54.81;101748.78;4440221;32;20081;-74
2022/03/17 08:27:23;;;;;;;45.10;18.92;;;;;;;9.37;54.67;101749.72;4440162;32;20145;-75
2022/03/17 08:29:50;;;;;;;34.80;18.52;;;;;;;9.28;53.89;101747.81;4440025;32;20093;-74
2022/03/17 08:32:17;;;;;;;34.05;19.98;;;;;;;9.07;52.89;101750.97;4432802;32;20127;-76
2022/03/17 08:34:45;;;;;;;37.75;18.80;;;;;;;9.04;52.97;101756.19;4431344;32;20129;-76
2022/03/17 08:37:12;;;;;;;42.92;20.05;;;;;;;9.03;53.33;101763.19;4427919;32;20181;-77
2022/03/17 08:39:39;;;;;;;37.90;19.73;;;;;;;9.09;52.17;101768.56;4428714;32;20093;-77
2022/03/17 08:42:07;;;;;;;35.78;18.37;;;;;;;9.19;52.84;101779.25;4433617;32;20144;-75
2022/03/17 08:44:34;;;;;;;40.72;20.15;;;;;;;9.57;52.21;101771.91;4424721;32;20073;-77
2022/03/17 08:49:47;;;;;;;41.20;19.42;;;;;;;9.93;51.33;101765.37;4439396;32;20115;-77
2022/03/17 08:52:14;;;;;;;37.20;19.15;;;;;;;10.12;50.45;101777.03;4437449;32;20104;-76
2022/03/17 08:54:47;;;;;;;37.50;20.67;;;;;;;10.32;50.13;101777.28;4431321;32;20089;-76
2022/03/17 08:57:14;;;;;;;35.92;20.80;;;;;;;10.44;49.28;101775.69;4424638;32;20085;-76
2022/03/17 08:59:41;;;;;;;37.30;18.85;;;;;;;10.63;48.36;101779.41;4424438;32;20155;-77
2022/03/17 09:02:13;;;;;;;39.45;20.08;;;;;;;10.73;48.77;101777.75;4424409;32;20143;-74
2022/03/17 09:04:40;;;;;;;37.30;20.77;;;;;;;10.68;49.43;101779.47;4424445;32;20124;-77
2022/03/17 09:07:08;;;;;;;35.67;19.15;;;;;;;11.01;48.83;101777.13;4424499;32;20149;-76
2022/03/17 09:09:37;;;;;;;36.10;18.85;;;;;;;11.31;47.33;101787.91;4427692;32;20165;-77
2022/03/17 09:12:06;;;;;;;30.52;17.85;;;;;;;11.48;47.20;101789.81;4429551;32;20468;-75
2022/03/17 09:14:36;;;;;;;35.47;19.40;;;;;;;11.62;46.92;101774.03;4432637;32;20158;-74
2022/03/17 09:17:04;;;;;;;32.95;18.12;;;;;;;11.93;46.65;101774.25;4424458;32;20123;-74
2022/03/17 09:19:32;;;;;;;34.58;19.48;;;;;;;11.82;47.37;101786.50;4424295;32;20088;-74
2022/03/17 09:21:59;;;;;;;34.13;18.98;;;;;;;11.54;47.67;101781.03;4424320;32;20139;-75
2022/03/17 09:24:30;;;;;;;31.05;18.10;;;;;;;11.72;47.66;101782.91;4424530;32;20158;-76
2022/03/17 09:26:59;;;;;;;36.15;20.25;;;;;;;12.06;46.97;101770.78;4430278;32;20115;-75
2022/03/17 09:29:28;;;;;;;34.33;19.58;;;;;;;11.98;46.90;101768.97;4439636;32;20089;-75
2022/03/17 09:31:58;;;;;;;38.78;20.80;;;;;;;11.62;47.56;101778.44;4439854;32;20089;-76
2022/03/17 09:34:26;;;;;;;31.00;18.87;;;;;;;11.67;47.81;101784.66;4439612;32;20760;-76
2022/03/17 09:36:53;;;;;;;38.42;20.62;;;;;;;11.64;47.86;101795.19;4439560;32;20128;-76
2022/03/17 09:39:45;;;;;;;30.35;18.30;;;;;;;11.67;48.42;101787.28;4439610;32;20093;-75
2022/03/17 09:42:17;;;;;;;31.83;19.48;;;;;;;11.86;47.52;101790.94;4439703;32;20478;-76
2022/03/17 09:44:48;;;;;;;35.08;18.45;;;;;;;11.86;48.76;101783.03;4434655;32;20089;-74
2022/03/17 09:47:19;;;;;;;36.05;18.95;;;;;;;12.07;48.26;101782.25;4422990;32;20106;-74
2022/03/17 09:49:54;;;;;;;43.42;18.95;;;;;;;12.31;47.32;101782.34;4422828;32;20149;-74
2022/03/17 09:52:22;;;;;;;33.85;18.00;;;;;;;12.44;51.53;101792.09;4432436;32;20093;-74
2022/03/17 09:54:51;;;;;;;31.83;17.52;;;;;;;12.54;47.71;101790.31;4437673;32;20089;-77
2022/03/17 09:57:20;;;;;;;50.97;17.35;;;;;;;12.96;53.73;101787.75;4438005;32;20122;-75
2022/03/17 09:59:48;;;;;;;29.33;17.37;;;;;;;13.22;53.38;101793.94;4435391;32;20097;-75
2022/03/17 10:02:17;;;;;;;34.03;18.00;;;;;;;13.88;43.94;101793.84;4423519;32;20428;-75
2022/03/17 10:04:46;;;;;;;42.62;18.58;;;;;;;13.93;44.83;101792.09;4433836;32;20429;-75
2022/03/17 10:07:18;;;;;;;37.47;16.20;;;;;;;14.27;44.39;101787.50;4429587;32;20163;-75
2022/03/17 10:09:47;;;;;;;26.98;16.65;;;;;;;14.33;45.80;101787.50;4423785;32;20172;-75
2022/03/17 10:12:17;;;;;;;25.37;15.93;;;;;;;14.76;44.69;101781.97;4437930;32;20135;-75
2022/03/17 10:14:50;;;;;;;38.53;17.45;;;;;;;14.95;42.52;101782.72;4439366;32;20121;-75
2022/03/17 10:17:31;;;;;;;34.40;18.33;;;;;;;14.98;41.50;101782.72;4431313;32;20123;-74
2022/03/17 10:20:34;;;;;;;26.45;16.85;;;;;;;15.04;40.82;101787.06;4435650;32;20100;-77
2022/03/17 10:23:02;;;;;;;29.12;16.95;;;;;;;15.02;41.24;101783.56;4397710;32;20104;-76
2022/03/17 10:25:31;;;;;;;28.92;17.75;;;;;;;15.20;40.63;101785.19;4438077;32;20089;-76
2022/03/17 10:28:02;;;;;;;29.40;16.42;;;;;;;15.53;41.08;101771.56;4436963;32;20109;-76
2022/03/17 10:30:35;;;;;;;27.23;16.80;;;;;;;15.17;40.35;101778.12;4424039;32;20160;-75
2022/03/17 10:33:03;;;;;;;31.80;17.12;;;;;;;15.37;39.48;101774.41;4423788;32;20100;-75
2022/03/17 10:35:34;;;;;;;28.35;16.80;;;;;;;15.45;40.22;101775.22;4428776;32;20171;-76
2022/03/17 10:38:14;;;;;;;44.00;17.30;;;;;;;15.66;39.29;101779.47;4433218;32;20093;-76
2022/03/17 10:40:44;;;;;;;36.22;17.25;;;;;;;15.58;39.33;101774.19;4423325;32;20458;-76
2022/03/17 10:43:20;;;;;;;28.15;15.82;;;;;;;15.63;39.71;101774.16;4427634;32;20148;-76
2022/03/17 10:45:47;;;;;;;27.75;16.55;;;;;;;15.93;39.48;101763.19;4427818;32;20754;-75
2022/03/17 10:48:14;;;;;;;28.90;16.98;;;;;;;15.89;39.24;101772.09;4424780;32;20127;-74
2022/03/17 10:50:43;;;;;;;28.27;17.45;;;;;;;15.79;41.17;101775.75;4430187;32;20241;-76
2022/03/17 10:53:10;;;;;;;23.20;16.33;;;;;;;16.05;41.03;101775.47;4422757;32;20133;-75
2022/03/17 10:55:39;;;;;;;24.60;16.23;;;;;;;16.09;38.94;101785.16;4423124;32;20093;-75
2022/03/17 10:58:20;;;;;;;33.75;16.35;;;;;;;16.13;38.63;101780.69;4423271;32;20089;-75
2022/03/17 11:00:50;;;;;;;26.65;15.48;;;;;;;16.06;38.83;101782.53;4424375;32;20089;-75
2022/03/17 11:03:20;;;;;;;29.50;16.50;;;;;;;16.11;39.82;101786.00;4425056;32;20097;-76
2022/03/17 11:05:51;;;;;;;24.45;16.35;;;;;;;16.62;38.50;101793.34;4410877;32;20116;-75
2022/03/17 11:08:20;;;;;;;22.77;16.10;;;;;;;16.83;38.23;101789.50;4425131;32;20870;-76
2022/03/17 11:10:49;;;;;;;24.27;16.45;;;;;;;17.03;36.85;101795.41;4425424;32;20176;-75
2022/03/17 11:13:17;;;;;;;24.23;14.95;;;;;;;17.11;37.00;101789.94;4426986;32;20089;-74
2022/03/17 11:16:05;;;;;;;24.08;16.52;;;;;;;17.09;37.02;101786.41;4439947;32;20090;-76
2022/03/17 11:18:37;;;;;;;29.05;16.15;;;;;;;17.26;36.86;101796.81;4439557;32;20535;-76
2022/03/17 11:21:20;;;;;;;29.35;17.20;;;;;;;16.89;38.21;101795.63;4440547;32;20154;-76
2022/03/17 11:23:59;;;;;;;23.17;15.75;;;;;;;16.61;37.56;101799.56;4440313;32;20168;-75
2022/03/17 11:26:41;;;;;;;30.35;16.33;;;;;;;16.73;38.07;101799.37;4439856;32;20157;-76
2022/03/17 11:29:25;;;;;;;27.80;15.45;;;;;;;17.02;39.12;101798.94;4422522;32;20080;-75
2022/03/17 11:31:53;;;;;;;22.87;14.95;;;;;;;17.41;36.59;101792.06;4428503;32;20105;-76
2022/03/17 11:34:48;;;;;;;25.67;14.87;;;;;;;17.25;36.22;101803.91;4431839;32;20610;-76
2022/03/17 11:37:26;;;;;;;21.83;15.18;;;;;;;17.26;36.64;101799.47;4419842;32;20073;-76
2022/03/17 11:39:54;;;;;;;23.67;15.15;;;;;;;17.40;36.53;101800.09;4430849;32;20117;-75